Time;durP1;ratioP1;P1;durP2;ratioP2;P2;SDS_P1;SDS_P2;PMS_P1;PMS_P2;Temp;Humidity;BMP_temperature;BMP_pressure;BME280_temperature;BME280_humidity;BME280_pressure;Samples;Min_cycle;Max_cycle;Signal;HPM_P1;HPM_P2
2023/03/18 00:02:33;;;;;;;7.57;3.30;;;7.00;99.90;;;;;;20944555;28;20033;-77
2023/03/18 00:12:36;;;;;;;7.87;2.97;;;7.00;99.90;;;;;;20936280;28;20021;-75
2023/03/18 00:22:39;;;;;;;10.82;4.60;;;6.30;99.90;;;;;;20939007;28;20029;-77
2023/03/18 00:32:40;;;;;;;8.32;3.35;;;6.40;99.90;;;;;;20932226;28;20919;-77
2023/03/18 00:42:46;;;;;;;6.80;3.73;;;6.40;99.90;;;;;;20927953;28;20098;-78
2023/03/18 00:52:47;;;;;;;14.32;2.70;;;6.20;99.90;;;;;;20917224;28;20287;-77
2023/03/18 01:02:48;;;;;;;17.02;2.83;;;6.10;99.90;;;;;;20925109;28;20032;-77
2023/03/18 01:12:49;;;;;;;7.30;3.00;;;6.10;99.90;;;;;;20921838;28;20523;-77
2023/03/18 01:22:50;;;;;;;;;;;5.80;99.90;;;;;;20914687;28;20044;-77
2023/03/18 01:32:53;;;;;;;6.50;2.37;;;5.70;99.90;;;;;;20913745;28;19931;-77
2023/03/18 01:43:11;;;;;;;5.68;2.13;;;6.00;99.90;;;;;;20908942;28;20067;-77
2023/03/18 01:53:17;;;;;;;4.80;2.00;;;5.90;99.90;;;;;;20908640;28;20037;-77
2023/03/18 02:03:20;;;;;;;5.32;2.00;;;5.50;99.90;;;;;;20910598;28;20123;-78
2023/03/18 02:13:21;;;;;;;7.20;2.00;;;5.50;99.90;;;;;;20909015;28;20039;-77
2023/03/18 02:23:48;;;;;;;3.65;1.88;;;5.30;99.90;;;;;;20919896;28;20028;-77
2023/03/18 02:33:49;;;;;;;5.30;1.95;;;5.50;99.90;;;;;;20907496;28;20064;-77
2023/03/18 02:43:51;;;;;;;4.45;1.95;;;5.40;99.90;;;;;;20911509;28;20032;-77
2023/03/18 02:53:57;;;;;;;2.90;1.88;;;5.30;99.90;;;;;;20903811;28;20516;-77
2023/03/18 03:03:59;;;;;;;4.85;2.40;;;5.70;99.90;;;;;;20907689;28;20120;-77
2023/03/18 03:14:00;;;;;;;5.80;1.90;;;5.90;99.90;;;;;;20907785;28;20037;-77
2023/03/18 03:24:06;;;;;;;4.40;1.60;;;5.60;99.90;;;;;;20911479;28;20082;-77
2023/03/18 03:34:07;;;;;;;6.80;2.80;;;5.20;99.90;;;;;;20908998;28;20033;-77
2023/03/18 03:44:09;;;;;;;5.72;2.28;;;5.30;99.90;;;;;;20923841;28;20415;-77
2023/03/18 03:54:11;;;;;;;;;;;5.20;99.90;;;;;;20922557;28;20033;-77
2023/03/18 04:04:12;;;;;;;4.30;2.05;;;4.90;99.90;;;;;;20925523;28;19969;-76
2023/03/18 04:14:13;;;;;;;11.45;1.95;;;4.80;99.90;;;;;;20925319;28;20036;-77
2023/03/18 04:24:14;;;;;;;7.25;1.40;;;4.40;99.90;;;;;;20921804;28;20487;-77
2023/03/18 04:34:16;;;;;;;2.83;1.50;;;4.60;99.90;;;;;;20918405;28;20390;-77
2023/03/18 04:44:19;;;;;;;4.82;2.10;;;4.10;99.90;;;;;;20922268;28;20082;-78
2023/03/18 04:54:25;;;;;;;5.60;2.33;;;4.10;99.90;;;;;;20914976;28;20041;-77
2023/03/18 05:04:29;;;;;;;8.80;2.05;;;3.90;99.90;;;;;;20897189;28;20151;-77
2023/03/18 05:14:30;;;;;;;3.97;1.60;;;3.70;99.90;;;;;;20911806;28;20039;-78
2023/03/18 05:24:32;;;;;;;2.45;1.50;;;3.40;99.90;;;;;;20910664;28;20029;-77
2023/03/18 05:34:36;;;;;;;6.97;3.03;;;3.80;99.90;;;;;;20919948;22;20047;-75
2023/03/18 05:44:39;;;;;;;9.05;2.67;;;4.60;99.90;;;;;;20870651;28;20748;-78
2023/03/18 05:54:43;;;;;;;6.28;2.78;;;4.70;99.90;;;;;;20833087;28;20561;-77
2023/03/18 06:04:45;;;;;;;6.70;2.50;;;4.70;99.90;;;;;;20830258;28;20124;-78
2023/03/18 06:14:47;;;;;;;11.63;2.42;;;4.70;99.90;;;;;;20851043;28;21459;-77
2023/03/18 06:24:50;;;;;;;5.95;3.35;;;4.90;99.90;;;;;;20846435;28;20032;-79
2023/03/18 06:34:53;;;;;;;8.98;2.45;;;5.20;99.90;;;;;;20861753;28;20038;-80
2023/03/18 06:44:54;;;;;;;4.38;2.33;;;5.90;99.90;;;;;;20855289;28;20096;-78
2023/03/18 06:55:02;;;;;;;6.45;3.17;;;6.80;99.90;;;;;;20866443;28;20043;-79
2023/03/18 07:05:04;;;;;;;6.10;2.72;;;7.30;99.90;;;;;;20897184;28;20033;-79
2023/03/18 07:15:09;;;;;;;8.30;3.47;;;7.80;99.90;;;;;;20952369;28;20025;-79
2023/03/18 07:25:10;;;;;;;8.13;3.40;;;8.70;99.90;;;;;;20971484;28;20441;-78
2023/03/18 07:35:13;;;;;;;;;;;9.00;99.90;;;;;;20952595;28;20098;-79
2023/03/18 07:45:13;;;;;;;8.70;3.22;;;8.80;99.90;;;;;;20891402;28;19913;-80
2023/03/18 07:55:14;;;;;;;6.97;3.27;;;9.20;99.90;;;;;;20907100;28;20037;-80
2023/03/18 08:05:15;;;;;;;5.32;2.45;;;10.40;99.90;;;;;;20909041;28;20094;-79
2023/03/18 08:15:16;;;;;;;4.83;2.87;;;11.80;99.90;;;;;;20966279;28;20499;-80
2023/03/18 08:25:17;;;;;;;7.23;3.87;;;13.10;99.90;;;;;;20959216;28;20197;-80
2023/03/18 08:35:18;;;;;;;4.47;2.83;;;13.60;99.90;;;;;;20923015;28;20121;-79
2023/03/18 08:45:19;;;;;;;10.57;3.40;;;13.60;99.90;;;;;;20950750;28;20049;-79
2023/03/18 08:55:20;;;;;;;8.73;3.30;;;14.70;99.90;;;;;;20956578;28;20025;-79
2023/03/18 09:05:21;;;;;;;8.65;3.78;;;14.90;99.90;;;;;;20939373;28;20053;-79
2023/03/18 09:15:22;;;;;;;7.23;3.10;;;15.10;99.90;;;;;;20954055;28;20025;-78
2023/03/18 09:25:23;;;;;;;9.97;3.83;;;16.20;99.90;;;;;;20964327;28;20047;-79
2023/03/18 09:35:24;;;;;;;8.33;3.73;;;16.20;99.90;;;;;;20912163;28;20040;-79
2023/03/18 09:45:55;;;;;;;5.67;3.43;;;15.60;99.90;;;;;;20964146;28;20577;-79
2023/03/18 09:56:00;;;;;;;7.20;3.97;;;17.70;99.90;;;;;;20976206;28;20044;-79
2023/03/18 10:06:08;;;;;;;11.05;3.90;;;19.40;99.90;;;;;;20928532;28;20045;-78
2023/03/18 10:16:19;;;;;;;6.32;3.67;;;19.70;99.90;;;;;;20963310;28;20529;-79
2023/03/18 10:26:39;;;;;;;7.30;3.10;;;19.50;99.90;;;;;;20974055;28;20029;-79
2023/03/18 10:37:02;;;;;;;7.88;3.70;;;19.50;99.90;;;;;;20922135;28;20101;-79
2023/03/18 10:47:18;;;;;;;9.38;3.92;;;20.30;99.90;;;;;;20969180;28;20020;-78
2023/03/18 10:57:20;;;;;;;6.13;2.90;;;20.20;99.20;;;;;;20956977;28;20037;-79
2023/03/18 11:07:25;;;;;;;6.72;2.47;;;19.50;99.30;;;;;;20952619;28;20133;-79
2023/03/18 11:17:29;;;;;;;6.72;2.28;;;21.50;95.90;;;;;;20969395;28;20471;-78
2023/03/18 11:27:44;;;;;;;5.38;2.50;;;22.40;94.20;;;;;;20959713;28;20037;-78
2023/03/18 11:37:46;;;;;;;2.42;1.23;;;21.00;93.80;;;;;;20936720;23;20037;-77
2023/03/18 11:47:47;;;;;;;2.47;0.70;;;20.60;91.30;;;;;;20861596;28;20073;-78
2023/03/18 11:58:15;;;;;;;3.37;1.30;;;20.70;89.90;;;;;;20836823;28;20510;-78
2023/03/18 12:08:23;;;;;;;8.23;1.27;;;20.50;90.20;;;;;;20849462;28;20044;-78
2023/03/18 12:18:53;;;;;;;2.28;1.00;;;19.50;88.00;;;;;;20850601;28;20025;-78
2023/03/18 12:29:16;;;;;;;3.85;1.67;;;19.10;90.80;;;;;;20850072;28;20037;-78
2023/03/18 12:39:48;;;;;;;4.97;1.40;;;19.30;90.50;;;;;;20825019;28;20029;-78
2023/03/18 12:49:58;;;;;;;4.38;1.27;;;19.70;90.40;;;;;;20843011;28;20387;-78
2023/03/18 13:00:05;;;;;;;4.00;1.58;;;20.30;90.60;;;;;;20837956;28;20500;-78
2023/03/18 13:10:23;;;;;;;4.38;1.70;;;20.40;91.30;;;;;;20813478;28;20377;-78
2023/03/18 13:20:29;;;;;;;2.42;1.75;;;19.20;91.80;;;;;;20821152;28;20167;-78
2023/03/18 13:30:32;;;;;;;5.15;1.80;;;19.80;92.10;;;;;;20817335;28;20022;-78
2023/03/18 13:41:16;;;;;;;5.05;1.55;;;20.00;92.30;;;;;;20809913;28;20034;-78
2023/03/18 13:51:54;;;;;;;4.13;1.60;;;19.70;92.10;;;;;;20749971;28;20081;-78
2023/03/18 14:02:17;;;;;;;5.88;1.55;;;18.80;93.50;;;;;;20844905;28;20060;-78
2023/03/18 14:12:32;;;;;;;3.15;1.63;;;19.00;93.60;;;;;;20816447;28;20127;-78
2023/03/18 14:22:38;;;;;;;3.30;1.70;;;19.10;94.20;;;;;;20772452;28;20407;-78
2023/03/18 14:32:39;;;;;;;5.90;1.90;;;18.40;94.00;;;;;;20821153;28;20034;-78
2023/03/18 14:43:11;;;;;;;7.00;2.15;;;18.60;93.60;;;;;;20828277;28;20523;-79
2023/03/18 14:53:12;;;;;;;3.13;1.47;;;19.40;93.20;;;;;;20822873;28;20048;-78
2023/03/18 15:03:23;;;;;;;3.17;1.52;;;19.10;93.40;;;;;;20843548;28;20117;-78
2023/03/18 15:13:24;;;;;;;7.13;2.10;;;19.40;93.50;;;;;;20797116;28;20036;-79
2023/03/18 15:23:36;;;;;;;10.45;3.58;;;19.00;94.60;;;;;;20818588;28;20103;-78
2023/03/18 15:33:37;;;;;;;7.43;2.40;;;18.50;94.50;;;;;;20823688;28;20039;-78
2023/03/18 15:43:46;;;;;;;10.60;2.75;;;18.40;96.00;;;;;;20838355;28;20040;-78
2023/03/18 15:53:52;;;;;;;7.50;3.78;;;18.70;96.20;;;;;;20801720;28;20022;-78
2023/03/18 16:03:53;;;;;;;5.32;2.75;;;18.50;95.30;;;;;;20814793;28;20531;-79
2023/03/18 16:13:54;;;;;;;7.63;2.45;;;18.60;96.20;;;;;;20814267;28;20501;-79
2023/03/18 16:23:55;;;;;;;6.67;2.10;;;18.30;95.40;;;;;;20813000;28;20025;-77
2023/03/18 16:33:56;;;;;;;10.52;2.05;;;18.00;96.20;;;;;;20803819;28;20033;-77
2023/03/18 16:43:57;;;;;;;4.97;1.33;;;18.00;98.40;;;;;;20843584;28;20032;-77
2023/03/18 16:53:58;;;;;;;11.95;2.00;;;17.90;99.70;;;;;;20806436;28;20088;-77
2023/03/18 17:03:59;;;;;;;4.75;2.10;;;17.90;98.60;;;;;;20814032;28;20495;-77
2023/03/18 17:14:01;;;;;;;3.67;1.63;;;17.20;97.30;;;;;;20778154;28;20048;-78
2023/03/18 17:24:03;;;;;;;6.13;1.95;;;16.50;98.70;;;;;;20757860;28;20260;-78
2023/03/18 17:34:12;;;;;;;5.67;2.10;;;15.90;99.90;;;;;;20833743;23;20487;-79
2023/03/18 17:44:27;;;;;;;9.45;4.55;;;15.40;99.90;;;;;;20924517;28;20064;-79
2023/03/18 17:54:30;;;;;;;11.80;5.57;;;14.90;99.90;;;;;;20840897;28;20053;-79
2023/03/18 18:04:31;;;;;;;11.30;5.43;;;14.50;99.90;;;;;;20871530;28;20082;-80
2023/03/18 18:14:33;;;;;;;8.35;3.95;;;14.20;99.90;;;;;;20920298;28;20039;-80
2023/03/18 18:24:34;;;;;;;29.58;19.20;;;14.50;99.90;;;;;;20920449;28;20031;-79
2023/03/18 18:34:35;;;;;;;7.70;2.78;;;14.40;99.90;;;;;;20918411;28;20380;-79
2023/03/18 18:44:36;;;;;;;6.97;3.13;;;14.30;99.90;;;;;;20917524;28;20103;-80
2023/03/18 18:54:37;;;;;;;4.20;2.20;;;14.00;99.90;;;;;;20907900;28;20492;-79
2023/03/18 19:04:38;;;;;;;3.77;1.90;;;13.90;99.90;;;;;;20889926;28;20052;-79
2023/03/18 19:14:39;;;;;;;5.73;3.33;;;13.70;99.90;;;;;;20929714;28;20090;-77
2023/03/18 19:24:40;;;;;;;9.93;5.30;;;13.30;99.90;;;;;;20913913;28;20033;-79
2023/03/18 19:34:41;;;;;;;9.93;2.47;;;13.20;99.90;;;;;;20936251;28;20032;-79
2023/03/18 19:44:43;;;;;;;5.70;2.50;;;13.20;99.90;;;;;;20935552;28;20283;-80
2023/03/18 19:54:45;;;;;;;5.00;2.83;;;13.20;99.90;;;;;;20925798;28;20484;-79
2023/03/18 20:04:48;;;;;;;5.00;2.53;;;13.00;99.90;;;;;;20915224;28;20064;-79
2023/03/18 20:14:49;;;;;;;4.80;3.08;;;12.50;99.90;;;;;;20935880;28;20031;-79
2023/03/18 20:24:50;;;;;;;8.02;3.00;;;12.30;99.90;;;;;;20934618;28;20033;-79
2023/03/18 20:34:51;;;;;;;9.40;4.78;;;12.20;99.90;;;;;;20933677;28;20412;-79
2023/03/18 20:44:52;;;;;;;6.53;3.20;;;12.00;99.90;;;;;;20933537;28;20036;-78
2023/03/18 20:54:55;;;;;;;8.07;2.93;;;12.10;99.90;;;;;;20915357;28;20025;-79
2023/03/18 21:04:57;;;;;;;9.05;3.42;;;11.70;99.90;;;;;;20931383;28;20040;-79
2023/03/18 21:14:58;;;;;;;10.30;3.75;;;11.40;99.90;;;;;;20932491;28;20124;-79
2023/03/18 21:24:59;;;;;;;14.33;4.70;;;11.70;99.90;;;;;;20907885;28;20018;-78
2023/03/18 21:35:00;;;;;;;9.43;4.53;;;11.50;99.90;;;;;;20923968;28;20036;-78
2023/03/18 21:45:00;;;;;;;16.80;6.33;;;11.10;99.90;;;;;;20925773;28;20021;-78
2023/03/18 21:55:04;;;;;;;8.77;4.17;;;10.90;99.90;;;;;;20898674;28;20244;-78
2023/03/18 22:05:19;;;;;;;7.15;3.63;;;11.00;99.90;;;;;;20925795;28;20032;-79
2023/03/18 22:15:23;;;;;;;12.07;4.18;;;10.90;99.90;;;;;;20909442;28;20030;-79
2023/03/18 22:25:29;;;;;;;8.75;4.32;;;10.50;99.90;;;;;;20921951;28;20498;-79
2023/03/18 22:35:31;;;;;;;10.90;5.07;;;10.40;99.90;;;;;;20904618;28;20037;-79
2023/03/18 22:45:32;;;;;;;6.65;3.85;;;10.30;99.90;;;;;;20914277;28;20310;-78
2023/03/18 22:55:35;;;;;;;;;;;10.30;99.90;;;;;;20880757;28;20116;-79
2023/03/18 23:05:35;;;;;;;13.20;4.33;;;10.40;99.90;;;;;;20890142;28;19913;-79
2023/03/18 23:15:36;;;;;;;15.97;4.90;;;10.40;99.90;;;;;;20870166;28;20036;-79
2023/03/18 23:25:38;;;;;;;14.97;4.93;;;10.50;99.90;;;;;;20907495;28;20052;-79
2023/03/18 23:35:40;;;;;;;7.93;4.53;;;10.50;99.90;;;;;;20892630;23;20056;-77
2023/03/18 23:45:41;;;;;;;8.33;3.77;;;10.40;99.90;;;;;;20882088;28;20063;-78
2023/03/18 23:55:42;;;;;;;8.60;4.70;;;10.60;99.90;;;;;;20822053;28;20479;-78
